sensor_id;sensor_type;location;lat;lon;timestamp;temperature;humidity
19580;DHT22;9936;51.040;13.918;2023-01-20T00:02:15;0.50;99.90
19580;DHT22;9936;51.040;13.918;2023-01-20T00:06:01;0.50;99.90
19580;DHT22;9936;51.040;13.918;2023-01-20T00:09:47;0.50;99.90
19580;DHT22;9936;51.040;13.918;2023-01-20T00:13:35;0.50;99.90
19580;DHT22;9936;51.040;13.918;2023-01-20T00:17:21;0.50;99.90
19580;DHT22;9936;51.040;13.918;2023-01-20T00:21:09;0.40;99.90
19580;DHT22;9936;51.040;13.918;2023-01-20T00:24:55;0.50;99.90
19580;DHT22;9936;51.040;13.918;2023-01-20T00:28:42;0.40;99.90
19580;DHT22;9936;51.040;13.918;2023-01-20T00:32:27;0.40;99.90
19580;DHT22;9936;51.040;13.918;2023-01-20T00:36:14;0.50;99.90
19580;DHT22;9936;51.040;13.918;2023-01-20T00:40:00;0.50;99.90
19580;DHT22;9936;51.040;13.918;2023-01-20T00:43:46;0.50;99.90
19580;DHT22;9936;51.040;13.918;2023-01-20T00:47:32;0.50;99.90
19580;DHT22;9936;51.040;13.918;2023-01-20T00:51:18;0.50;99.90
19580;DHT22;9936;51.040;13.918;2023-01-20T00:55:03;0.50;99.90
19580;DHT22;9936;51.040;13.918;2023-01-20T00:58:49;0.50;99.90
19580;DHT22;9936;51.040;13.918;2023-01-20T01:02:38;0.50;99.90
19580;DHT22;9936;51.040;13.918;2023-01-20T01:06:24;0.50;99.90
19580;DHT22;9936;51.040;13.918;2023-01-20T01:10:10;0.50;99.90
19580;DHT22;9936;51.040;13.918;2023-01-20T01:13:56;0.50;99.90
19580;DHT22;9936;51.040;13.918;2023-01-20T01:17:42;0.50;99.90
19580;DHT22;9936;51.040;13.918;2023-01-20T01:21:28;0.50;99.90
19580;DHT22;9936;51.040;13.918;2023-01-20T01:25:14;0.50;99.90
19580;DHT22;9936;51.040;13.918;2023-01-20T01:28:59;0.50;99.90
19580;DHT22;9936;51.040;13.918;2023-01-20T01:32:46;0.50;99.90
19580;DHT22;9936;51.040;13.918;2023-01-20T01:36:31;0.50;99.90
19580;DHT22;9936;51.040;13.918;2023-01-20T01:40:17;0.50;99.90
19580;DHT22;9936;51.040;13.918;2023-01-20T01:44:11;0.50;99.90
19580;DHT22;9936;51.040;13.918;2023-01-20T01:48:09;0.50;99.90
19580;DHT22;9936;51.040;13.918;2023-01-20T01:52:00;0.50;99.90
19580;DHT22;9936;51.040;13.918;2023-01-20T01:55:50;0.50;99.90
19580;DHT22;9936;51.040;13.918;2023-01-20T01:59:38;0.50;99.90
19580;DHT22;9936;51.040;13.918;2023-01-20T02:03:32;0.50;99.90
19580;DHT22;9936;51.040;13.918;2023-01-20T02:07:21;0.50;99.90
19580;DHT22;9936;51.040;13.918;2023-01-20T02:11:07;0.50;99.90
19580;DHT22;9936;51.040;13.918;2023-01-20T02:14:55;0.50;99.90
19580;DHT22;9936;51.040;13.918;2023-01-20T02:27:19;0.50;99.90
19580;DHT22;9936;51.040;13.918;2023-01-20T02:35:48;0.50;99.90
19580;DHT22;9936;51.040;13.918;2023-01-20T02:39:36;0.50;99.90
19580;DHT22;9936;51.040;13.918;2023-01-20T02:51:24;0.50;99.90
19580;DHT22;9936;51.040;13.918;2023-01-20T02:55:33;0.50;99.90
19580;DHT22;9936;51.040;13.918;2023-01-20T02:59:23;0.50;99.90
19580;DHT22;9936;51.040;13.918;2023-01-20T03:03:11;0.50;99.90
19580;DHT22;9936;51.040;13.918;2023-01-20T03:07:00;0.50;99.90
19580;DHT22;9936;51.040;13.918;2023-01-20T03:10:49;0.50;99.90
19580;DHT22;9936;51.040;13.918;2023-01-20T03:14:36;0.60;99.90
19580;DHT22;9936;51.040;13.918;2023-01-20T03:18:22;0.50;99.90
19580;DHT22;9936;51.040;13.918;2023-01-20T03:22:08;0.50;99.90
19580;DHT22;9936;51.040;13.918;2023-01-20T03:25:54;0.60;99.90
19580;DHT22;9936;51.040;13.918;2023-01-20T03:29:40;0.50;99.90
19580;DHT22;9936;51.040;13.918;2023-01-20T03:33:26;0.50;99.90
19580;DHT22;9936;51.040;13.918;2023-01-20T03:37:12;0.50;99.90
19580;DHT22;9936;51.040;13.918;2023-01-20T03:41:07;0.50;99.90
19580;DHT22;9936;51.040;13.918;2023-01-20T03:49:09;0.50;99.90
19580;DHT22;9936;51.040;13.918;2023-01-20T03:57:02;0.60;99.90
19580;DHT22;9936;51.040;13.918;2023-01-20T04:00:50;0.50;99.90
19580;DHT22;9936;51.040;13.918;2023-01-20T04:04:39;0.50;99.90
19580;DHT22;9936;51.040;13.918;2023-01-20T04:08:29;0.50;99.90
19580;DHT22;9936;51.040;13.918;2023-01-20T04:12:17;0.50;99.90
19580;DHT22;9936;51.040;13.918;2023-01-20T04:16:09;0.50;99.90
19580;DHT22;9936;51.040;13.918;2023-01-20T04:19:56;0.70;99.90
19580;DHT22;9936;51.040;13.918;2023-01-20T04:23:54;0.70;99.90
19580;DHT22;9936;51.040;13.918;2023-01-20T04:27:41;0.50;99.90
19580;DHT22;9936;51.040;13.918;2023-01-20T04:31:26;0.50;99.90
19580;DHT22;9936;51.040;13.918;2023-01-20T04:35:15;0.50;99.90
19580;DHT22;9936;51.040;13.918;2023-01-20T04:39:00;0.50;99.90
19580;DHT22;9936;51.040;13.918;2023-01-20T04:42:46;0.50;99.90
19580;DHT22;9936;51.040;13.918;2023-01-20T04:46:32;0.60;99.90
19580;DHT22;9936;51.040;13.918;2023-01-20T04:50:17;0.50;99.90
19580;DHT22;9936;51.040;13.918;2023-01-20T04:54:03;0.50;99.90
19580;DHT22;9936;51.040;13.918;2023-01-20T04:57:49;0.50;99.90
19580;DHT22;9936;51.040;13.918;2023-01-20T05:01:35;0.60;99.90
19580;DHT22;9936;51.040;13.918;2023-01-20T05:05:20;0.60;99.90
19580;DHT22;9936;51.040;13.918;2023-01-20T05:09:06;0.50;99.90
19580;DHT22;9936;51.040;13.918;2023-01-20T05:12:55;0.60;99.90
19580;DHT22;9936;51.040;13.918;2023-01-20T05:16:40;0.50;99.90
19580;DHT22;9936;51.040;13.918;2023-01-20T05:20:27;0.60;99.90
19580;DHT22;9936;51.040;13.918;2023-01-20T05:24:14;0.50;99.90
19580;DHT22;9936;51.040;13.918;2023-01-20T05:27:59;0.60;99.90
19580;DHT22;9936;51.040;13.918;2023-01-20T05:31:45;0.70;99.90
19580;DHT22;9936;51.040;13.918;2023-01-20T05:35:30;0.70;99.90
19580;DHT22;9936;51.040;13.918;2023-01-20T05:39:16;0.60;99.90
19580;DHT22;9936;51.040;13.918;2023-01-20T05:43:02;0.60;99.90
19580;DHT22;9936;51.040;13.918;2023-01-20T05:46:48;0.70;99.90
19580;DHT22;9936;51.040;13.918;2023-01-20T05:50:33;0.60;99.90
19580;DHT22;9936;51.040;13.918;2023-01-20T05:54:19;0.70;99.90
19580;DHT22;9936;51.040;13.918;2023-01-20T05:58:05;0.80;99.90
19580;DHT22;9936;51.040;13.918;2023-01-20T06:01:51;0.70;99.90
19580;DHT22;9936;51.040;13.918;2023-01-20T06:05:37;0.70;99.90
19580;DHT22;9936;51.040;13.918;2023-01-20T06:09:22;0.60;99.90
19580;DHT22;9936;51.040;13.918;2023-01-20T06:13:08;0.60;99.90
19580;DHT22;9936;51.040;13.918;2023-01-20T06:16:54;0.60;99.90
19580;DHT22;9936;51.040;13.918;2023-01-20T06:20:39;0.60;99.90
19580;DHT22;9936;51.040;13.918;2023-01-20T06:24:25;0.60;99.90
19580;DHT22;9936;51.040;13.918;2023-01-20T06:28:10;0.60;99.90
19580;DHT22;9936;51.040;13.918;2023-01-20T06:31:56;0.60;99.90
19580;DHT22;9936;51.040;13.918;2023-01-20T06:35:42;0.60;99.90
19580;DHT22;9936;51.040;13.918;2023-01-20T06:39:27;0.60;99.90
19580;DHT22;9936;51.040;13.918;2023-01-20T06:43:13;0.70;99.90
19580;DHT22;9936;51.040;13.918;2023-01-20T06:46:59;0.70;99.90
19580;DHT22;9936;51.040;13.918;2023-01-20T06:50:44;0.60;99.90
19580;DHT22;9936;51.040;13.918;2023-01-20T06:54:30;0.60;99.90
19580;DHT22;9936;51.040;13.918;2023-01-20T06:58:16;0.60;99.90
19580;DHT22;9936;51.040;13.918;2023-01-20T07:02:01;0.70;99.90
19580;DHT22;9936;51.040;13.918;2023-01-20T07:06:00;0.60;99.90
19580;DHT22;9936;51.040;13.918;2023-01-20T07:09:46;0.60;99.90
19580;DHT22;9936;51.040;13.918;2023-01-20T07:13:32;0.70;99.90
19580;DHT22;9936;51.040;13.918;2023-01-20T07:17:18;0.60;99.90
19580;DHT22;9936;51.040;13.918;2023-01-20T07:21:04;0.60;99.90
19580;DHT22;9936;51.040;13.918;2023-01-20T07:24:49;0.60;99.90
19580;DHT22;9936;51.040;13.918;2023-01-20T07:28:36;0.60;99.90
19580;DHT22;9936;51.040;13.918;2023-01-20T07:32:21;0.60;99.90
19580;DHT22;9936;51.040;13.918;2023-01-20T07:36:08;0.60;99.90
19580;DHT22;9936;51.040;13.918;2023-01-20T07:39:54;0.60;99.90
19580;DHT22;9936;51.040;13.918;2023-01-20T07:43:40;0.80;99.90
19580;DHT22;9936;51.040;13.918;2023-01-20T07:47:26;0.70;99.90
19580;DHT22;9936;51.040;13.918;2023-01-20T07:51:13;0.70;99.90
19580;DHT22;9936;51.040;13.918;2023-01-20T07:54:58;0.70;99.90
19580;DHT22;9936;51.040;13.918;2023-01-20T07:58:44;0.70;99.90
19580;DHT22;9936;51.040;13.918;2023-01-20T08:02:35;0.70;99.90
19580;DHT22;9936;51.040;13.918;2023-01-20T08:06:22;0.70;99.90
19580;DHT22;9936;51.040;13.918;2023-01-20T08:10:09;0.70;99.90
19580;DHT22;9936;51.040;13.918;2023-01-20T08:13:54;0.70;99.90
19580;DHT22;9936;51.040;13.918;2023-01-20T08:17:40;0.70;99.90
19580;DHT22;9936;51.040;13.918;2023-01-20T08:21:28;0.70;99.90
19580;DHT22;9936;51.040;13.918;2023-01-20T08:25:15;0.70;99.90
19580;DHT22;9936;51.040;13.918;2023-01-20T08:29:06;0.70;99.90
19580;DHT22;9936;51.040;13.918;2023-01-20T08:32:52;0.70;99.90
19580;DHT22;9936;51.040;13.918;2023-01-20T08:36:39;0.80;99.90
19580;DHT22;9936;51.040;13.918;2023-01-20T08:40:25;0.70;99.90
19580;DHT22;9936;51.040;13.918;2023-01-20T08:44:10;0.80;99.90
19580;DHT22;9936;51.040;13.918;2023-01-20T08:48:01;0.80;99.90
19580;DHT22;9936;51.040;13.918;2023-01-20T08:51:47;0.80;99.90
19580;DHT22;9936;51.040;13.918;2023-01-20T08:55:33;0.80;99.90
19580;DHT22;9936;51.040;13.918;2023-01-20T08:59:19;0.80;99.90
19580;DHT22;9936;51.040;13.918;2023-01-20T09:03:05;0.80;99.90
19580;DHT22;9936;51.040;13.918;2023-01-20T09:06:50;0.70;99.90
19580;DHT22;9936;51.040;13.918;2023-01-20T09:10:37;0.80;99.90
19580;DHT22;9936;51.040;13.918;2023-01-20T09:14:23;0.80;99.90
19580;DHT22;9936;51.040;13.918;2023-01-20T09:18:09;0.90;99.90
19580;DHT22;9936;51.040;13.918;2023-01-20T09:21:55;0.90;99.90
19580;DHT22;9936;51.040;13.918;2023-01-20T09:25:41;0.90;99.90
19580;DHT22;9936;51.040;13.918;2023-01-20T09:29:26;0.90;99.90
19580;DHT22;9936;51.040;13.918;2023-01-20T09:33:12;0.90;99.90
19580;DHT22;9936;51.040;13.918;2023-01-20T09:37:00;1.00;99.90
19580;DHT22;9936;51.040;13.918;2023-01-20T09:41:27;1.00;99.90
19580;DHT22;9936;51.040;13.918;2023-01-20T09:45:37;1.00;99.90
19580;DHT22;9936;51.040;13.918;2023-01-20T09:49:35;1.00;99.90
19580;DHT22;9936;51.040;13.918;2023-01-20T09:53:56;1.00;99.90
19580;DHT22;9936;51.040;13.918;2023-01-20T09:57:49;1.00;99.90
19580;DHT22;9936;51.040;13.918;2023-01-20T10:02:03;1.00;99.90
19580;DHT22;9936;51.040;13.918;2023-01-20T10:05:51;1.00;99.90
19580;DHT22;9936;51.040;13.918;2023-01-20T10:14:23;1.00;99.90
19580;DHT22;9936;51.040;13.918;2023-01-20T10:22:39;1.00;99.90
19580;DHT22;9936;51.040;13.918;2023-01-20T10:26:40;1.00;99.90
19580;DHT22;9936;51.040;13.918;2023-01-20T10:30:30;1.00;99.90
19580;DHT22;9936;51.040;13.918;2023-01-20T10:34:19;1.00;99.90
19580;DHT22;9936;51.040;13.918;2023-01-20T10:38:12;0.90;99.90
19580;DHT22;9936;51.040;13.918;2023-01-20T10:42:07;1.10;99.90
19580;DHT22;9936;51.040;13.918;2023-01-20T11:01:51;1.10;99.90
19580;DHT22;9936;51.040;13.918;2023-01-20T11:05:37;1.20;99.90
19580;DHT22;9936;51.040;13.918;2023-01-20T11:09:33;1.10;99.90
19580;DHT22;9936;51.040;13.918;2023-01-20T11:13:20;1.10;99.90
19580;DHT22;9936;51.040;13.918;2023-01-20T11:17:08;1.20;99.90
19580;DHT22;9936;51.040;13.918;2023-01-20T11:24:44;1.20;99.90
19580;DHT22;9936;51.040;13.918;2023-01-20T11:28:36;1.20;99.90
19580;DHT22;9936;51.040;13.918;2023-01-20T11:32:36;1.20;99.90
19580;DHT22;9936;51.040;13.918;2023-01-20T11:36:24;1.20;99.90
19580;DHT22;9936;51.040;13.918;2023-01-20T11:40:24;1.20;99.90
19580;DHT22;9936;51.040;13.918;2023-01-20T11:44:19;1.10;99.90
19580;DHT22;9936;51.040;13.918;2023-01-20T11:51:59;1.10;99.90
19580;DHT22;9936;51.040;13.918;2023-01-20T12:00:02;1.10;99.90
19580;DHT22;9936;51.040;13.918;2023-01-20T12:07:55;1.10;99.90
19580;DHT22;9936;51.040;13.918;2023-01-20T12:16:04;1.10;99.90
19580;DHT22;9936;51.040;13.918;2023-01-20T12:24:08;1.10;99.90
19580;DHT22;9936;51.040;13.918;2023-01-20T12:28:09;1.10;99.90
19580;DHT22;9936;51.040;13.918;2023-01-20T12:31:57;1.10;99.90
19580;DHT22;9936;51.040;13.918;2023-01-20T12:35:57;1.20;99.90
19580;DHT22;9936;51.040;13.918;2023-01-20T12:40:07;1.10;99.90
19580;DHT22;9936;51.040;13.918;2023-01-20T12:52:05;1.10;99.90
19580;DHT22;9936;51.040;13.918;2023-01-20T12:56:26;1.10;99.90
19580;DHT22;9936;51.040;13.918;2023-01-20T13:05:03;1.10;99.90
19580;DHT22;9936;51.040;13.918;2023-01-20T13:21:13;1.00;99.90
19580;DHT22;9936;51.040;13.918;2023-01-20T13:25:01;1.00;99.90
19580;DHT22;9936;51.040;13.918;2023-01-20T13:28:51;1.00;99.90
19580;DHT22;9936;51.040;13.918;2023-01-20T13:32:45;1.00;99.90
19580;DHT22;9936;51.040;13.918;2023-01-20T13:36:32;1.00;99.90
19580;DHT22;9936;51.040;13.918;2023-01-20T13:44:35;1.10;99.90
19580;DHT22;9936;51.040;13.918;2023-01-20T13:48:24;1.10;99.90
19580;DHT22;9936;51.040;13.918;2023-01-20T13:52:10;1.10;99.90
19580;DHT22;9936;51.040;13.918;2023-01-20T13:55:58;1.00;99.90
19580;DHT22;9936;51.040;13.918;2023-01-20T13:59:43;1.00;99.90
19580;DHT22;9936;51.040;13.918;2023-01-20T14:03:34;1.00;99.90
19580;DHT22;9936;51.040;13.918;2023-01-20T14:07:28;1.00;99.90
19580;DHT22;9936;51.040;13.918;2023-01-20T14:11:24;1.00;99.90
19580;DHT22;9936;51.040;13.918;2023-01-20T14:15:28;1.00;99.90
19580;DHT22;9936;51.040;13.918;2023-01-20T14:19:23;1.00;99.90
19580;DHT22;9936;51.040;13.918;2023-01-20T14:23:36;1.00;99.90
19580;DHT22;9936;51.040;13.918;2023-01-20T14:27:24;1.00;99.90
19580;DHT22;9936;51.040;13.918;2023-01-20T14:35:23;1.00;99.90
19580;DHT22;9936;51.040;13.918;2023-01-20T14:39:23;1.00;99.90
19580;DHT22;9936;51.040;13.918;2023-01-20T14:43:18;1.10;99.90
19580;DHT22;9936;51.040;13.918;2023-01-20T14:47:04;1.10;99.90
19580;DHT22;9936;51.040;13.918;2023-01-20T14:50:53;1.10;99.90
19580;DHT22;9936;51.040;13.918;2023-01-20T14:54:41;1.10;99.90
19580;DHT22;9936;51.040;13.918;2023-01-20T14:58:28;1.10;99.90
19580;DHT22;9936;51.040;13.918;2023-01-20T15:02:26;1.10;99.90
19580;DHT22;9936;51.040;13.918;2023-01-20T15:06:19;1.00;99.90
19580;DHT22;9936;51.040;13.918;2023-01-20T15:10:31;1.10;99.90
19580;DHT22;9936;51.040;13.918;2023-01-20T15:14:17;1.00;99.90
19580;DHT22;9936;51.040;13.918;2023-01-20T15:18:21;1.00;99.90
19580;DHT22;9936;51.040;13.918;2023-01-20T15:22:18;1.00;99.90
19580;DHT22;9936;51.040;13.918;2023-01-20T15:26:07;1.10;99.90
19580;DHT22;9936;51.040;13.918;2023-01-20T15:33:44;1.10;99.90
19580;DHT22;9936;51.040;13.918;2023-01-20T15:37:29;1.00;99.90
19580;DHT22;9936;51.040;13.918;2023-01-20T15:41:25;0.90;99.90
19580;DHT22;9936;51.040;13.918;2023-01-20T15:45:15;0.90;99.90
19580;DHT22;9936;51.040;13.918;2023-01-20T15:49:01;0.90;99.90
19580;DHT22;9936;51.040;13.918;2023-01-20T15:52:48;1.00;99.90
19580;DHT22;9936;51.040;13.918;2023-01-20T15:56:34;1.00;99.90
19580;DHT22;9936;51.040;13.918;2023-01-20T16:00:41;0.90;99.90
19580;DHT22;9936;51.040;13.918;2023-01-20T16:04:28;1.00;99.90
19580;DHT22;9936;51.040;13.918;2023-01-20T16:08:35;0.90;99.90
19580;DHT22;9936;51.040;13.918;2023-01-20T16:12:21;1.00;99.90
19580;DHT22;9936;51.040;13.918;2023-01-20T16:16:14;0.90;99.90
19580;DHT22;9936;51.040;13.918;2023-01-20T16:20:00;0.90;99.90
19580;DHT22;9936;51.040;13.918;2023-01-20T16:23:46;0.90;99.90
19580;DHT22;9936;51.040;13.918;2023-01-20T16:27:32;0.80;99.90
19580;DHT22;9936;51.040;13.918;2023-01-20T16:35:53;0.80;99.90
19580;DHT22;9936;51.040;13.918;2023-01-20T16:39:39;0.70;99.90
19580;DHT22;9936;51.040;13.918;2023-01-20T16:43:25;0.80;99.90
19580;DHT22;9936;51.040;13.918;2023-01-20T16:47:10;0.80;99.90
19580;DHT22;9936;51.040;13.918;2023-01-20T16:50:58;0.80;99.90
19580;DHT22;9936;51.040;13.918;2023-01-20T16:54:48;0.90;99.90
19580;DHT22;9936;51.040;13.918;2023-01-20T16:58:34;0.90;99.90
19580;DHT22;9936;51.040;13.918;2023-01-20T17:02:20;0.90;99.90
19580;DHT22;9936;51.040;13.918;2023-01-20T17:06:19;0.90;99.90
19580;DHT22;9936;51.040;13.918;2023-01-20T17:10:05;0.80;99.90
19580;DHT22;9936;51.040;13.918;2023-01-20T17:13:52;1.10;99.90
19580;DHT22;9936;51.040;13.918;2023-01-20T17:17:37;1.30;99.90
19580;DHT22;9936;51.040;13.918;2023-01-20T17:21:25;1.40;99.90
19580;DHT22;9936;51.040;13.918;2023-01-20T17:25:26;1.50;99.90
19580;DHT22;9936;51.040;13.918;2023-01-20T17:29:11;1.70;99.90
19580;DHT22;9936;51.040;13.918;2023-01-20T17:32:57;1.70;99.90
19580;DHT22;9936;51.040;13.918;2023-01-20T17:36:43;1.80;99.90
19580;DHT22;9936;51.040;13.918;2023-01-20T17:40:29;1.70;99.90
19580;DHT22;9936;51.040;13.918;2023-01-20T17:44:14;1.80;99.90
19580;DHT22;9936;51.040;13.918;2023-01-20T17:48:00;1.80;99.90
19580;DHT22;9936;51.040;13.918;2023-01-20T17:51:46;1.80;99.90
19580;DHT22;9936;51.040;13.918;2023-01-20T17:55:31;1.90;99.90
19580;DHT22;9936;51.040;13.918;2023-01-20T17:59:17;1.80;99.90
19580;DHT22;9936;51.040;13.918;2023-01-20T18:03:27;1.80;99.90
19580;DHT22;9936;51.040;13.918;2023-01-20T18:07:20;1.80;99.90
19580;DHT22;9936;51.040;13.918;2023-01-20T18:11:13;1.80;99.90
19580;DHT22;9936;51.040;13.918;2023-01-20T18:15:11;1.80;99.90
19580;DHT22;9936;51.040;13.918;2023-01-20T18:18:57;1.70;99.90
19580;DHT22;9936;51.040;13.918;2023-01-20T18:22:47;1.70;99.90
19580;DHT22;9936;51.040;13.918;2023-01-20T18:26:52;1.70;99.90
19580;DHT22;9936;51.040;13.918;2023-01-20T18:30:37;1.80;99.90
19580;DHT22;9936;51.040;13.918;2023-01-20T18:34:24;1.70;99.90
19580;DHT22;9936;51.040;13.918;2023-01-20T18:38:12;1.70;99.90
19580;DHT22;9936;51.040;13.918;2023-01-20T18:41:57;1.70;99.90
19580;DHT22;9936;51.040;13.918;2023-01-20T18:45:53;1.50;99.90
19580;DHT22;9936;51.040;13.918;2023-01-20T18:49:45;1.50;99.90
19580;DHT22;9936;51.040;13.918;2023-01-20T18:53:33;1.70;99.90
19580;DHT22;9936;51.040;13.918;2023-01-20T18:57:20;1.60;99.90
19580;DHT22;9936;51.040;13.918;2023-01-20T19:01:11;1.60;99.90
19580;DHT22;9936;51.040;13.918;2023-01-20T19:04:57;1.50;99.90
19580;DHT22;9936;51.040;13.918;2023-01-20T19:08:44;1.50;99.90
19580;DHT22;9936;51.040;13.918;2023-01-20T19:12:30;1.40;99.90
19580;DHT22;9936;51.040;13.918;2023-01-20T19:16:17;1.40;99.90
19580;DHT22;9936;51.040;13.918;2023-01-20T19:20:11;1.40;99.90
19580;DHT22;9936;51.040;13.918;2023-01-20T19:23:57;1.40;99.90
19580;DHT22;9936;51.040;13.918;2023-01-20T19:27:43;1.50;99.90
19580;DHT22;9936;51.040;13.918;2023-01-20T19:31:34;1.30;99.90
19580;DHT22;9936;51.040;13.918;2023-01-20T19:35:20;1.30;99.90
19580;DHT22;9936;51.040;13.918;2023-01-20T19:39:06;1.30;99.90
19580;DHT22;9936;51.040;13.918;2023-01-20T19:42:51;1.30;99.90
19580;DHT22;9936;51.040;13.918;2023-01-20T19:46:38;1.20;99.90
19580;DHT22;9936;51.040;13.918;2023-01-20T19:50:23;1.20;99.90
19580;DHT22;9936;51.040;13.918;2023-01-20T19:54:11;1.10;99.90
19580;DHT22;9936;51.040;13.918;2023-01-20T19:57:57;1.10;99.90
19580;DHT22;9936;51.040;13.918;2023-01-20T20:01:43;1.20;99.90
19580;DHT22;9936;51.040;13.918;2023-01-20T20:05:29;1.40;99.90
19580;DHT22;9936;51.040;13.918;2023-01-20T20:09:23;1.20;99.90
19580;DHT22;9936;51.040;13.918;2023-01-20T20:13:12;1.30;99.90
19580;DHT22;9936;51.040;13.918;2023-01-20T20:16:59;1.30;99.90
19580;DHT22;9936;51.040;13.918;2023-01-20T20:20:45;1.20;99.90
19580;DHT22;9936;51.040;13.918;2023-01-20T20:24:30;1.20;99.90
19580;DHT22;9936;51.040;13.918;2023-01-20T20:28:26;1.40;99.90
19580;DHT22;9936;51.040;13.918;2023-01-20T20:32:15;1.20;99.90
19580;DHT22;9936;51.040;13.918;2023-01-20T20:36:08;1.70;99.90
19580;DHT22;9936;51.040;13.918;2023-01-20T20:39:54;1.10;99.90
19580;DHT22;9936;51.040;13.918;2023-01-20T20:43:39;1.10;99.90
19580;DHT22;9936;51.040;13.918;2023-01-20T20:47:25;1.10;99.90
19580;DHT22;9936;51.040;13.918;2023-01-20T20:51:15;1.40;99.90
19580;DHT22;9936;51.040;13.918;2023-01-20T20:55:00;1.10;99.90
19580;DHT22;9936;51.040;13.918;2023-01-20T20:58:48;1.10;99.90
19580;DHT22;9936;51.040;13.918;2023-01-20T21:02:38;1.00;99.90
19580;DHT22;9936;51.040;13.918;2023-01-20T21:06:30;1.00;99.90
19580;DHT22;9936;51.040;13.918;2023-01-20T21:10:16;0.90;99.90
19580;DHT22;9936;51.040;13.918;2023-01-20T21:14:01;0.90;99.90
19580;DHT22;9936;51.040;13.918;2023-01-20T21:17:47;1.00;99.90
19580;DHT22;9936;51.040;13.918;2023-01-20T21:21:33;0.90;99.90
19580;DHT22;9936;51.040;13.918;2023-01-20T21:25:21;0.90;99.90
19580;DHT22;9936;51.040;13.918;2023-01-20T21:29:10;1.00;99.90
19580;DHT22;9936;51.040;13.918;2023-01-20T21:32:59;1.00;99.90
19580;DHT22;9936;51.040;13.918;2023-01-20T21:36:45;1.10;99.90
19580;DHT22;9936;51.040;13.918;2023-01-20T21:40:31;1.00;99.90
19580;DHT22;9936;51.040;13.918;2023-01-20T21:44:16;0.90;99.90
19580;DHT22;9936;51.040;13.918;2023-01-20T21:48:14;0.90;99.90
19580;DHT22;9936;51.040;13.918;2023-01-20T21:57:01;0.80;99.90
19580;DHT22;9936;51.040;13.918;2023-01-20T22:00:46;0.90;99.90
19580;DHT22;9936;51.040;13.918;2023-01-20T22:04:33;0.80;99.90
19580;DHT22;9936;51.040;13.918;2023-01-20T22:08:19;0.80;99.90
19580;DHT22;9936;51.040;13.918;2023-01-20T22:20:42;0.90;99.90
19580;DHT22;9936;51.040;13.918;2023-01-20T22:24:28;0.90;99.90
19580;DHT22;9936;51.040;13.918;2023-01-20T22:28:13;0.90;99.90
19580;DHT22;9936;51.040;13.918;2023-01-20T22:31:59;0.80;99.90
19580;DHT22;9936;51.040;13.918;2023-01-20T22:35:47;0.80;99.90
19580;DHT22;9936;51.040;13.918;2023-01-20T22:39:33;0.80;99.90
19580;DHT22;9936;51.040;13.918;2023-01-20T22:43:19;0.70;99.90
19580;DHT22;9936;51.040;13.918;2023-01-20T22:47:04;0.60;99.90
19580;DHT22;9936;51.040;13.918;2023-01-20T22:50:54;0.60;99.90
19580;DHT22;9936;51.040;13.918;2023-01-20T22:54:39;0.60;99.90
19580;DHT22;9936;51.040;13.918;2023-01-20T22:58:25;0.60;99.90
19580;DHT22;9936;51.040;13.918;2023-01-20T23:02:10;0.60;99.90
19580;DHT22;9936;51.040;13.918;2023-01-20T23:05:57;0.40;99.90
19580;DHT22;9936;51.040;13.918;2023-01-20T23:09:43;0.40;99.90
19580;DHT22;9936;51.040;13.918;2023-01-20T23:13:30;0.50;99.90
19580;DHT22;9936;51.040;13.918;2023-01-20T23:17:16;0.40;99.90
19580;DHT22;9936;51.040;13.918;2023-01-20T23:21:02;0.50;99.90
19580;DHT22;9936;51.040;13.918;2023-01-20T23:24:50;0.50;99.90
19580;DHT22;9936;51.040;13.918;2023-01-20T23:28:35;0.60;99.90
19580;DHT22;9936;51.040;13.918;2023-01-20T23:32:21;0.50;99.90
19580;DHT22;9936;51.040;13.918;2023-01-20T23:36:16;0.50;99.90
19580;DHT22;9936;51.040;13.918;2023-01-20T23:40:03;0.50;99.90
19580;DHT22;9936;51.040;13.918;2023-01-20T23:43:49;0.50;99.90
19580;DHT22;9936;51.040;13.918;2023-01-20T23:47:34;0.30;99.90
19580;DHT22;9936;51.040;13.918;2023-01-20T23:51:20;0.30;99.90
19580;DHT22;9936;51.040;13.918;2023-01-20T23:55:06;0.40;99.90
19580;DHT22;9936;51.040;13.918;2023-01-20T23:58:52;0.30;99.90
